sensor_id;sensor_type;location;lat;lon;timestamp;P1;durP1;ratioP1;P2;durP2;ratioP2
47289;SDS011;33197;52.524;13.444;2022-11-15T00:06:03;36.65;;;26.73;;
47289;SDS011;33197;52.524;13.444;2022-11-15T00:08:32;42.88;;;29.05;;
47289;SDS011;33197;52.524;13.444;2022-11-15T02:00:34;40.15;;;28.90;;
47289;SDS011;33197;52.524;13.444;2022-11-15T02:03:02;41.13;;;28.48;;
47289;SDS011;33197;52.524;13.444;2022-11-15T02:09:43;37.97;;;28.17;;
47289;SDS011;33197;52.524;13.444;2022-11-15T02:12:12;41.80;;;27.65;;
47289;SDS011;33197;52.524;13.444;2022-11-15T02:14:42;36.17;;;27.50;;
47289;SDS011;33197;52.524;13.444;2022-11-15T02:17:32;42.78;;;29.15;;
47289;SDS011;33197;52.524;13.444;2022-11-15T06:54:40;43.88;;;31.83;;
47289;SDS011;33197;52.524;13.444;2022-11-15T06:57:07;45.55;;;32.30;;
47289;SDS011;33197;52.524;13.444;2022-11-15T06:59:34;40.72;;;29.55;;
47289;SDS011;33197;52.524;13.444;2022-11-15T07:02:10;40.72;;;29.58;;
47289;SDS011;33197;52.524;13.444;2022-11-15T07:04:39;38.40;;;27.67;;
47289;SDS011;33197;52.524;13.444;2022-11-15T07:07:07;40.58;;;29.80;;
47289;SDS011;33197;52.524;13.444;2022-11-15T07:09:35;36.28;;;27.63;;
47289;SDS011;33197;52.524;13.444;2022-11-15T07:12:02;39.50;;;28.55;;
47289;SDS011;33197;52.524;13.444;2022-11-15T07:14:33;38.83;;;28.38;;
47289;SDS011;33197;52.524;13.444;2022-11-15T07:17:03;38.53;;;28.30;;
47289;SDS011;33197;52.524;13.444;2022-11-15T07:19:32;38.10;;;27.23;;
47289;SDS011;33197;52.524;13.444;2022-11-15T07:21:59;36.85;;;28.02;;
47289;SDS011;33197;52.524;13.444;2022-11-15T07:24:27;40.05;;;27.65;;
47289;SDS011;33197;52.524;13.444;2022-11-15T07:26:55;38.65;;;28.10;;
47289;SDS011;33197;52.524;13.444;2022-11-15T07:29:22;35.28;;;27.70;;
47289;SDS011;33197;52.524;13.444;2022-11-15T07:31:50;41.00;;;29.80;;
47289;SDS011;33197;52.524;13.444;2022-11-15T07:34:17;38.25;;;29.48;;
47289;SDS011;33197;52.524;13.444;2022-11-15T07:36:47;40.63;;;29.10;;
47289;SDS011;33197;52.524;13.444;2022-11-15T07:39:15;41.03;;;28.83;;
47289;SDS011;33197;52.524;13.444;2022-11-15T07:41:43;42.53;;;29.60;;
47289;SDS011;33197;52.524;13.444;2022-11-15T07:44:10;42.53;;;27.15;;
47289;SDS011;33197;52.524;13.444;2022-11-15T07:46:38;44.00;;;30.80;;
47289;SDS011;33197;52.524;13.444;2022-11-15T07:49:05;39.03;;;28.05;;
47289;SDS011;33197;52.524;13.444;2022-11-15T07:51:33;39.08;;;27.77;;
47289;SDS011;33197;52.524;13.444;2022-11-15T07:54:00;40.10;;;28.73;;
47289;SDS011;33197;52.524;13.444;2022-11-15T07:56:28;40.22;;;28.58;;
47289;SDS011;33197;52.524;13.444;2022-11-15T07:58:56;40.38;;;28.75;;
47289;SDS011;33197;52.524;13.444;2022-11-15T08:01:24;35.53;;;28.10;;
47289;SDS011;33197;52.524;13.444;2022-11-15T08:03:52;39.35;;;28.27;;
47289;SDS011;33197;52.524;13.444;2022-11-15T08:06:19;37.25;;;27.52;;
47289;SDS011;33197;52.524;13.444;2022-11-15T08:08:47;36.90;;;27.40;;
47289;SDS011;33197;52.524;13.444;2022-11-15T08:11:15;40.42;;;25.55;;
47289;SDS011;33197;52.524;13.444;2022-11-15T08:13:42;39.70;;;28.05;;
47289;SDS011;33197;52.524;13.444;2022-11-15T08:16:10;36.33;;;26.27;;
47289;SDS011;33197;52.524;13.444;2022-11-15T08:18:38;38.47;;;27.88;;
47289;SDS011;33197;52.524;13.444;2022-11-15T08:21:08;42.65;;;26.55;;
47289;SDS011;33197;52.524;13.444;2022-11-15T08:23:45;40.45;;;27.25;;
47289;SDS011;33197;52.524;13.444;2022-11-15T08:26:12;40.45;;;28.65;;
47289;SDS011;33197;52.524;13.444;2022-11-15T08:28:41;38.80;;;27.77;;
47289;SDS011;33197;52.524;13.444;2022-11-15T08:31:15;45.47;;;28.08;;
47289;SDS011;33197;52.524;13.444;2022-11-15T08:33:45;40.65;;;27.70;;
47289;SDS011;33197;52.524;13.444;2022-11-15T08:36:14;34.70;;;25.55;;
47289;SDS011;33197;52.524;13.444;2022-11-15T08:38:42;38.08;;;26.60;;
47289;SDS011;33197;52.524;13.444;2022-11-15T08:41:12;35.95;;;25.88;;
47289;SDS011;33197;52.524;13.444;2022-11-15T08:43:42;33.95;;;24.15;;
47289;SDS011;33197;52.524;13.444;2022-11-15T08:46:11;39.40;;;27.48;;
47289;SDS011;33197;52.524;13.444;2022-11-15T08:48:40;34.75;;;25.65;;
47289;SDS011;33197;52.524;13.444;2022-11-15T08:51:07;38.85;;;25.00;;
47289;SDS011;33197;52.524;13.444;2022-11-15T08:53:35;35.60;;;26.52;;
47289;SDS011;33197;52.524;13.444;2022-11-15T08:56:02;34.88;;;26.60;;
47289;SDS011;33197;52.524;13.444;2022-11-15T08:58:35;35.90;;;25.88;;
47289;SDS011;33197;52.524;13.444;2022-11-15T09:01:03;35.90;;;25.05;;
47289;SDS011;33197;52.524;13.444;2022-11-15T09:03:32;35.25;;;25.55;;
47289;SDS011;33197;52.524;13.444;2022-11-15T09:06:00;36.72;;;25.52;;
47289;SDS011;33197;52.524;13.444;2022-11-15T09:08:31;35.38;;;26.05;;
47289;SDS011;33197;52.524;13.444;2022-11-15T09:11:13;34.08;;;25.33;;
47289;SDS011;33197;52.524;13.444;2022-11-15T09:13:43;34.88;;;24.50;;
47289;SDS011;33197;52.524;13.444;2022-11-15T09:16:10;33.58;;;23.98;;
47289;SDS011;33197;52.524;13.444;2022-11-15T09:18:39;33.63;;;25.83;;
47289;SDS011;33197;52.524;13.444;2022-11-15T09:21:08;35.45;;;24.00;;
47289;SDS011;33197;52.524;13.444;2022-11-15T09:23:36;37.08;;;23.45;;
47289;SDS011;33197;52.524;13.444;2022-11-15T09:26:05;39.10;;;24.80;;
47289;SDS011;33197;52.524;13.444;2022-11-15T09:28:33;35.38;;;25.27;;
47289;SDS011;33197;52.524;13.444;2022-11-15T09:31:02;41.50;;;24.58;;
47289;SDS011;33197;52.524;13.444;2022-11-15T09:33:35;33.83;;;24.38;;
47289;SDS011;33197;52.524;13.444;2022-11-15T09:36:04;31.58;;;23.38;;
47289;SDS011;33197;52.524;13.444;2022-11-15T09:38:34;34.65;;;24.42;;
47289;SDS011;33197;52.524;13.444;2022-11-15T09:43:48;35.63;;;23.38;;
47289;SDS011;33197;52.524;13.444;2022-11-15T09:49:09;32.88;;;23.08;;
47289;SDS011;33197;52.524;13.444;2022-11-15T09:51:41;28.15;;;22.83;;
47289;SDS011;33197;52.524;13.444;2022-11-15T10:05:24;29.70;;;21.90;;
47289;SDS011;33197;52.524;13.444;2022-11-15T10:10:47;30.02;;;22.08;;
47289;SDS011;33197;52.524;13.444;2022-11-15T10:13:37;29.17;;;21.85;;
47289;SDS011;33197;52.524;13.444;2022-11-15T10:21:40;25.83;;;17.92;;
47289;SDS011;33197;52.524;13.444;2022-11-15T10:24:28;25.42;;;18.60;;
47289;SDS011;33197;52.524;13.444;2022-11-15T10:27:01;33.40;;;19.50;;
47289;SDS011;33197;52.524;13.444;2022-11-15T10:29:28;22.80;;;16.90;;
47289;SDS011;33197;52.524;13.444;2022-11-15T10:31:56;27.60;;;19.50;;
47289;SDS011;33197;52.524;13.444;2022-11-15T10:34:23;29.25;;;18.30;;
47289;SDS011;33197;52.524;13.444;2022-11-15T10:39:23;25.67;;;18.92;;
47289;SDS011;33197;52.524;13.444;2022-11-15T10:41:51;26.02;;;19.45;;
47289;SDS011;33197;52.524;13.444;2022-11-15T10:49:32;22.92;;;15.05;;
47289;SDS011;33197;52.524;13.444;2022-11-15T10:52:02;28.20;;;18.83;;
47289;SDS011;33197;52.524;13.444;2022-11-15T11:00:03;25.08;;;16.73;;
47289;SDS011;33197;52.524;13.444;2022-11-15T11:02:59;23.50;;;14.82;;
47289;SDS011;33197;52.524;13.444;2022-11-15T11:10:38;19.33;;;14.73;;
47289;SDS011;33197;52.524;13.444;2022-11-15T11:21:18;24.88;;;16.63;;
47289;SDS011;33197;52.524;13.444;2022-11-15T11:26:34;22.77;;;15.90;;
47289;SDS011;33197;52.524;13.444;2022-11-15T11:42:57;21.42;;;15.85;;
47289;SDS011;33197;52.524;13.444;2022-11-15T11:45:47;23.52;;;14.95;;
47289;SDS011;33197;52.524;13.444;2022-11-15T11:48:42;18.58;;;14.50;;
47289;SDS011;33197;52.524;13.444;2022-11-15T11:56:41;22.55;;;15.25;;
47289;SDS011;33197;52.524;13.444;2022-11-15T12:01:42;18.17;;;13.57;;
47289;SDS011;33197;52.524;13.444;2022-11-15T12:04:25;17.05;;;12.48;;
47289;SDS011;33197;52.524;13.444;2022-11-15T12:07:03;16.05;;;13.45;;
47289;SDS011;33197;52.524;13.444;2022-11-15T12:09:51;16.55;;;11.93;;
47289;SDS011;33197;52.524;13.444;2022-11-15T12:12:55;15.77;;;12.73;;
47289;SDS011;33197;52.524;13.444;2022-11-15T12:15:36;16.58;;;13.60;;
47289;SDS011;33197;52.524;13.444;2022-11-15T12:18:08;15.60;;;12.52;;
47289;SDS011;33197;52.524;13.444;2022-11-15T12:20:41;16.55;;;13.65;;
47289;SDS011;33197;52.524;13.444;2022-11-15T12:23:19;14.02;;;11.45;;
47289;SDS011;33197;52.524;13.444;2022-11-15T12:28:28;14.15;;;11.73;;
47289;SDS011;33197;52.524;13.444;2022-11-15T12:33:49;16.75;;;12.68;;
47289;SDS011;33197;52.524;13.444;2022-11-15T12:36:37;15.13;;;12.95;;
47289;SDS011;33197;52.524;13.444;2022-11-15T12:39:07;20.15;;;12.15;;
47289;SDS011;33197;52.524;13.444;2022-11-15T12:47:01;18.27;;;12.57;;
47289;SDS011;33197;52.524;13.444;2022-11-15T12:52:05;20.35;;;13.07;;
47289;SDS011;33197;52.524;13.444;2022-11-15T13:38:56;14.88;;;10.25;;
47289;SDS011;33197;52.524;13.444;2022-11-15T15:38:38;16.85;;;13.80;;
47289;SDS011;33197;52.524;13.444;2022-11-15T15:41:10;23.52;;;15.93;;
47289;SDS011;33197;52.524;13.444;2022-11-15T15:43:40;21.92;;;14.40;;
47289;SDS011;33197;52.524;13.444;2022-11-15T15:46:11;22.20;;;16.85;;
47289;SDS011;33197;52.524;13.444;2022-11-15T15:48:44;25.95;;;17.55;;
47289;SDS011;33197;52.524;13.444;2022-11-15T15:55:35;21.58;;;15.90;;
47289;SDS011;33197;52.524;13.444;2022-11-15T15:58:03;25.85;;;17.67;;
47289;SDS011;33197;52.524;13.444;2022-11-15T16:00:32;24.73;;;18.60;;
47289;SDS011;33197;52.524;13.444;2022-11-15T16:03:02;23.42;;;17.20;;
47289;SDS011;33197;52.524;13.444;2022-11-15T16:05:31;23.15;;;16.88;;
47289;SDS011;33197;52.524;13.444;2022-11-15T16:07:59;19.63;;;16.15;;
47289;SDS011;33197;52.524;13.444;2022-11-15T16:10:28;20.02;;;15.60;;
47289;SDS011;33197;52.524;13.444;2022-11-15T16:12:57;20.92;;;15.25;;
47289;SDS011;33197;52.524;13.444;2022-11-15T16:15:27;23.65;;;14.90;;
47289;SDS011;33197;52.524;13.444;2022-11-15T16:17:57;20.80;;;15.80;;
47289;SDS011;33197;52.524;13.444;2022-11-15T16:20:38;23.55;;;15.52;;
47289;SDS011;33197;52.524;13.444;2022-11-15T16:23:10;21.40;;;15.32;;
47289;SDS011;33197;52.524;13.444;2022-11-15T16:25:45;22.52;;;16.00;;
47289;SDS011;33197;52.524;13.444;2022-11-15T16:28:27;28.73;;;16.73;;
47289;SDS011;33197;52.524;13.444;2022-11-15T16:39:49;24.92;;;16.90;;
47289;SDS011;33197;52.524;13.444;2022-11-15T16:42:16;24.25;;;18.58;;
